Time;durP1;ratioP1;P1;durP2;ratioP2;P2;SDS_P1;SDS_P2;PMS_P1;PMS_P2;Temp;Humidity;BMP_temperature;BMP_pressure;BME280_temperature;BME280_humidity;BME280_pressure;Samples;Min_cycle;Max_cycle;Signal;HPM_P1;HPM_P2
2021/09/23 00:00:18;;;;;;;17.63;16.27;;;;;;;12.43;85.89;101231.13;4991967;28;20633;-77
2021/09/23 00:03:00;;;;;;;20.10;18.30;;;;;;;12.41;86.29;101222.44;4992618;28;20212;-77
2021/09/23 00:05:31;;;;;;;16.53;15.13;;;;;;;12.42;85.81;101238.09;4992345;28;20227;-77
2021/09/23 00:07:59;;;;;;;17.43;15.80;;;;;;;12.41;85.22;101256.47;4992212;28;20297;-77
2021/09/23 00:10:28;;;;;;;18.80;17.07;;;;;;;12.33;85.00;101264.41;4991284;28;20205;-76
2021/09/23 00:12:56;;;;;;;17.77;16.00;;;;;;;12.27;85.22;101254.88;4992722;28;20204;-77
2021/09/23 00:15:23;;;;;;;18.67;16.97;;;;;;;12.29;85.53;101247.03;4992112;28;20204;-76
2021/09/23 00:17:54;;;;;;;21.13;19.27;;;;;;;12.25;86.19;101229.59;4992100;28;20225;-76
2021/09/23 00:20:23;;;;;;;17.53;15.97;;;;;;;12.25;86.02;101216.50;4992303;28;20256;-76
2021/09/23 00:22:52;;;;;;;18.60;16.87;;;;;;;12.28;86.04;101204.25;4991764;28;20586;-77
2021/09/23 00:25:19;;;;;;;19.23;17.40;;;;;;;12.24;86.36;101188.63;4991568;28;20264;-76
2021/09/23 00:27:46;;;;;;;21.43;19.23;;;;;;;12.25;86.49;101169.38;4992305;28;20229;-77
2021/09/23 00:30:14;;;;;;;17.97;16.47;;;;;;;12.24;86.03;101165.91;4992073;28;20271;-76
2021/09/23 00:32:40;;;;;;;18.10;16.47;;;;;;;12.21;86.56;101152.88;4991891;28;20209;-77
2021/09/23 00:35:08;;;;;;;16.87;15.47;;;;;;;12.12;87.18;101119.84;4991996;28;20216;-77
2021/09/23 00:37:35;;;;;;;16.43;14.90;;;;;;;12.14;87.00;101122.44;4992114;28;20303;-77
2021/09/23 00:40:04;;;;;;;18.10;16.70;;;;;;;12.07;87.62;101108.59;4991587;28;20201;-76
2021/09/23 00:42:30;;;;;;;19.00;17.30;;;;;;;12.09;87.18;101134.72;4991890;28;20673;-77
2021/09/23 00:44:58;;;;;;;23.73;20.83;;;;;;;12.07;87.25;101131.25;4992247;28;20204;-76
2021/09/23 00:47:24;;;;;;;19.93;17.77;;;;;;;12.09;87.80;101117.28;4992018;28;20256;-77
2021/09/23 00:49:51;;;;;;;18.43;17.03;;;;;;;12.09;86.78;101121.63;4991887;28;20216;-77
2021/09/23 00:52:19;;;;;;;19.20;17.37;;;;;;;12.08;86.89;101133.00;4991947;28;20265;-77
2021/09/23 00:54:46;;;;;;;17.60;16.10;;;;;;;12.07;87.01;101131.25;4995105;28;20687;-77
2021/09/23 00:57:17;;;;;;;18.10;16.40;;;;;;;12.08;86.76;101138.22;4995141;28;20287;-77
2021/09/23 00:59:43;;;;;;;18.17;16.63;;;;;;;11.99;86.53;101134.00;4995209;28;20213;-77
2021/09/23 01:02:10;;;;;;;18.20;16.33;;;;;;;11.97;86.50;101142.75;4995466;28;20192;-77
2021/09/23 01:04:42;;;;;;;17.30;15.70;;;;;;;11.98;86.33;101144.47;4995504;28;20266;-77
2021/09/23 01:07:08;;;;;;;17.93;16.37;;;;;;;11.91;86.71;101135.84;4995104;28;20237;-76
2021/09/23 01:09:38;;;;;;;18.13;16.57;;;;;;;11.91;86.50;101135.84;4994566;28;20204;-77
2021/09/23 01:12:05;;;;;;;19.07;15.43;;;;;;;11.81;87.08;101100.19;4995057;28;20626;-76
2021/09/23 01:14:32;;;;;;;17.33;15.63;;;;;;;11.76;86.58;101121.19;4995121;28;20204;-76
2021/09/23 01:16:59;;;;;;;18.97;16.90;;;;;;;11.79;86.27;101142.06;4995111;28;20359;-76
2021/09/23 01:19:25;;;;;;;16.63;15.13;;;;;;;11.83;85.83;101146.38;4994617;28;20208;-77
2021/09/23 01:21:53;;;;;;;19.13;17.27;;;;;;;11.77;86.00;101145.59;4994922;28;20213;-77
2021/09/23 01:24:19;;;;;;;18.93;17.33;;;;;;;11.79;85.63;101164.75;4994700;28;20566;-77
2021/09/23 01:26:49;;;;;;;21.00;19.30;;;;;;;11.81;85.45;101166.44;4994636;28;20290;-77
2021/09/23 01:29:15;;;;;;;22.20;20.00;;;;;;;11.83;84.99;101188.25;4994336;28;20203;-76
2021/09/23 01:31:42;;;;;;;23.03;21.13;;;;;;;11.82;85.24;101181.25;4994972;28;20209;-77
2021/09/23 01:34:08;;;;;;;24.67;22.20;;;;;;;11.77;85.47;101159.50;4994909;28;20205;-76
2021/09/23 01:36:35;;;;;;;26.63;23.77;;;;;;;11.75;85.46;101158.66;4994332;28;20219;-77
2021/09/23 01:39:04;;;;;;;26.00;23.40;;;;;;;11.72;85.47;101167.44;4994139;28;20259;-76
2021/09/23 01:41:30;;;;;;;24.90;22.23;;;;;;;11.64;85.34;101156.19;4994173;28;20205;-76
2021/09/23 01:43:57;;;;;;;24.57;22.37;;;;;;;11.58;85.22;101160.66;4994701;28;20268;-77
2021/09/23 01:46:23;;;;;;;25.63;23.03;;;;;;;11.57;84.69;101158.91;4994654;28;20590;-77
2021/09/23 01:48:50;;;;;;;23.57;21.50;;;;;;;11.48;84.78;101155.50;4993957;28;20209;-77
2021/09/23 01:51:16;;;;;;;26.03;23.33;;;;;;;11.47;84.66;101153.75;4994380;28;20208;-77
2021/09/23 01:53:43;;;;;;;26.10;23.07;;;;;;;11.41;85.02;101146.00;4994197;28;20605;-77
2021/09/23 01:56:11;;;;;;;25.03;22.53;;;;;;;11.41;85.04;101138.16;4993841;28;20685;-77
2021/09/23 01:58:37;;;;;;;25.03;22.80;;;;;;;11.42;84.99;101126.81;4993747;28;20677;-76
2021/09/23 02:01:04;;;;;;;25.87;23.33;;;;;;;11.40;84.80;101131.22;4994172;28;20224;-76
2021/09/23 02:03:30;;;;;;;26.00;22.70;;;;;;;11.38;84.77;101125.13;4993631;28;20734;-76
2021/09/23 02:05:56;;;;;;;24.23;22.07;;;;;;;11.40;84.92;101130.34;4993004;28;20235;-76
2021/09/23 02:08:23;;;;;;;24.87;22.37;;;;;;;11.35;85.04;101111.22;4993764;28;20232;-76
2021/09/23 02:10:49;;;;;;;25.10;22.30;;;;;;;11.34;85.32;101097.28;4993672;28;20208;-76
2021/09/23 02:13:17;;;;;;;24.77;21.97;;;;;;;11.32;85.45;101094.69;4994183;28;20215;-77
2021/09/23 02:15:43;;;;;;;26.17;23.50;;;;;;;11.33;85.96;101072.88;4994001;28;20569;-76
2021/09/23 02:18:10;;;;;;;26.43;23.77;;;;;;;11.32;86.48;101058.09;4993465;28;20788;-77
2021/09/23 02:20:36;;;;;;;26.87;23.67;;;;;;;11.37;86.21;101033.66;4993472;28;20209;-76
2021/09/23 02:23:03;;;;;;;24.07;21.70;;;;;;;11.37;86.51;101029.28;4993743;28;20234;-76
2021/09/23 02:25:29;;;;;;;28.17;23.67;;;;;;;11.39;86.61;101027.50;4993664;28;20208;-77
2021/09/23 02:27:55;;;;;;;25.50;23.03;;;;;;;11.35;87.08;101007.53;4993601;28;20811;-77
2021/09/23 02:30:24;;;;;;;25.20;22.60;;;;;;;11.36;87.51;100980.53;4993442;28;20212;-76
2021/09/23 02:32:50;;;;;;;25.40;22.43;;;;;;;11.35;88.02;100965.72;4993407;28;20675;-77
2021/09/23 02:35:17;;;;;;;25.70;22.30;;;;;;;11.35;88.46;100952.66;4993601;28;20263;-76
2021/09/23 02:37:43;;;;;;;25.93;22.47;;;;;;;11.32;88.36;100937.88;4993591;28;20224;-77
2021/09/23 02:40:11;;;;;;;34.17;24.17;;;;;;;11.35;88.75;100930.88;4993041;28;20757;-77
2021/09/23 02:42:38;;;;;;;37.37;29.57;;;;;;;11.38;88.84;100920.34;4993058;28;20207;-76
2021/09/23 02:45:06;;;;;;;40.07;27.53;;;;;;;11.39;88.88;100915.13;4993675;28;20213;-77
2021/09/23 02:47:33;;;;;;;42.43;29.77;;;;;;;11.40;89.01;100905.56;4993007;28;20237;-77
2021/09/23 02:50:00;;;;;;;43.20;30.60;;;;;;;11.42;89.11;100894.19;4993049;28;20209;-77
2021/09/23 02:52:26;;;;;;;39.23;29.33;;;;;;;11.53;89.12;100888.78;4993174;28;20226;-76
2021/09/23 02:54:53;;;;;;;38.47;30.50;;;;;;;11.53;89.03;100888.78;4993548;28;20261;-77
2021/09/23 02:57:19;;;;;;;39.77;30.53;;;;;;;11.62;88.63;100887.78;4992735;28;20232;-77
2021/09/23 02:59:46;;;;;;;40.37;30.83;;;;;;;11.66;88.18;100894.69;4993064;28;20220;-77
2021/09/23 03:02:13;;;;;;;38.93;30.20;;;;;;;11.75;88.13;100906.72;4993042;28;20207;-76
2021/09/23 03:04:40;;;;;;;37.13;29.53;;;;;;;11.76;88.12;100911.09;4993054;28;20721;-77
2021/09/23 03:07:07;;;;;;;37.33;27.83;;;;;;;11.83;87.94;100912.69;4993199;28;20227;-77
2021/09/23 03:09:33;;;;;;;39.17;28.73;;;;;;;11.80;87.80;100899.69;4992337;28;20581;-76
2021/09/23 03:12:00;;;;;;;35.87;28.53;;;;;;;11.74;88.03;100890.19;4993063;28;20269;-77
2021/09/23 03:14:26;;;;;;;39.70;29.53;;;;;;;11.80;87.89;100897.06;4993330;28;20208;-76
2021/09/23 03:16:52;;;;;;;38.83;29.40;;;;;;;11.87;87.12;100923.09;4992678;28;20286;-76
2021/09/23 03:19:19;;;;;;;37.43;26.60;;;;;;;11.91;87.44;100908.22;4992799;28;20259;-77
2021/09/23 03:21:47;;;;;;;34.20;26.83;;;;;;;11.87;87.15;100909.13;4992950;28;20759;-77
2021/09/23 03:24:13;;;;;;;37.20;27.63;;;;;;;11.87;87.46;100901.28;4993015;28;20255;-77
2021/09/23 03:26:41;;;;;;;31.63;27.10;;;;;;;11.85;86.85;100918.75;4992828;28;20290;-77
2021/09/23 03:29:08;;;;;;;35.80;26.13;;;;;;;11.85;86.90;100921.38;4992862;28;20235;-77
2021/09/23 03:31:35;;;;;;;33.37;26.73;;;;;;;11.83;87.48;100900.50;4993301;28;20278;-77
2021/09/23 03:34:02;;;;;;;38.97;29.20;;;;;;;11.82;86.85;100911.84;4992443;28;20204;-77
2021/09/23 03:36:29;;;;;;;33.13;27.73;;;;;;;11.89;86.80;100908.28;4992911;28;20234;-77
2021/09/23 03:38:56;;;;;;;36.60;26.67;;;;;;;11.94;87.05;100908.19;4992207;28;20207;-76
2021/09/23 03:41:23;;;;;;;29.80;24.63;;;;;;;11.94;87.17;100902.09;4992278;28;20235;-76
2021/09/23 03:43:50;;;;;;;33.03;25.97;;;;;;;11.91;86.88;100908.22;4992791;28;20209;-77
2021/09/23 03:46:17;;;;;;;38.47;27.63;;;;;;;11.90;86.88;100903.91;4992762;28;20263;-77
2021/09/23 03:48:44;;;;;;;39.07;29.00;;;;;;;11.90;86.24;100922.22;4991646;28;20274;-76
2021/09/23 03:51:13;;;;;;;46.87;31.30;;;;;;;11.94;86.11;100952.66;4984205;28;20200;-77
2021/09/23 03:53:39;;;;;;;38.47;30.57;;;;;;;11.90;86.01;100951.84;4992640;28;20613;-77
2021/09/23 03:56:12;;;;;;;45.50;31.93;;;;;;;11.90;85.77;100959.69;4992111;28;20621;-76
2021/09/23 03:58:38;;;;;;;43.90;32.10;;;;;;;11.93;85.46;100977.09;4992510;28;20194;-77
2021/09/23 04:01:05;;;;;;;52.93;36.03;;;;;;;11.94;84.99;100988.44;4992244;28;20266;-76
2021/09/23 04:03:31;;;;;;;51.00;33.90;;;;;;;11.93;84.42;101013.72;4992150;28;20240;-77
2021/09/23 04:05:58;;;;;;;44.27;31.90;;;;;;;11.84;84.53;101032.16;4991430;28;20295;-76
2021/09/23 04:08:24;;;;;;;45.97;32.90;;;;;;;11.52;85.18;101009.94;4991828;28;20764;-77
2021/09/23 04:10:51;;;;;;;47.17;34.33;;;;;;;11.21;86.61;100952.81;4992443;28;20203;-77
2021/09/23 04:13:18;;;;;;;49.70;35.30;;;;;;;11.25;86.81;100930.13;4992135;28;20262;-77
2021/09/23 04:15:46;;;;;;;43.43;33.13;;;;;;;11.39;86.47;100943.88;4992414;28;20212;-76
2021/09/23 04:18:15;;;;;;;49.47;32.83;;;;;;;11.47;86.27;100955.06;4991816;28;20302;-77
2021/09/23 04:20:42;;;;;;;43.10;31.73;;;;;;;11.47;86.00;100967.28;4991810;28;20206;-77
2021/09/23 04:23:08;;;;;;;45.90;32.60;;;;;;;11.54;85.62;100971.56;4992259;28;20207;-77
2021/09/23 04:25:35;;;;;;;43.23;31.67;;;;;;;11.49;85.04;100976.84;4991869;28;20248;-76
2021/09/23 04:28:01;;;;;;;42.60;31.73;;;;;;;11.55;84.56;100988.97;4993247;28;20322;-76
2021/09/23 04:30:29;;;;;;;43.73;32.13;;;;;;;11.48;84.93;100982.09;4995712;28;20208;-77
2021/09/23 04:32:57;;;;;;;40.40;31.80;;;;;;;11.41;85.38;100952.56;4995709;28;20268;-76
2021/09/23 04:35:23;;;;;;;47.97;32.60;;;;;;;11.39;86.13;100924.72;4995341;28;20212;-76
2021/09/23 04:37:50;;;;;;;42.93;31.77;;;;;;;11.43;86.11;100922.03;4995714;28;20275;-77
2021/09/23 04:40:16;;;;;;;44.07;30.37;;;;;;;11.45;86.64;100898.47;4995319;28;20740;-77
2021/09/23 04:42:43;;;;;;;42.20;30.03;;;;;;;11.49;86.66;100897.56;4995790;28;20262;-77
2021/09/23 04:45:10;;;;;;;40.80;30.27;;;;;;;11.44;86.67;100868.03;4995939;28;20780;-76
2021/09/23 04:47:38;;;;;;;38.97;27.70;;;;;;;11.46;87.32;100861.88;4995386;28;20256;-76
2021/09/23 04:50:05;;;;;;;38.93;26.77;;;;;;;11.48;87.04;100875.78;4995077;28;20218;-77
2021/09/23 04:52:32;;;;;;;40.47;30.03;;;;;;;11.50;87.14;100881.00;4995866;28;20270;-76
2021/09/23 04:54:58;;;;;;;36.07;28.03;;;;;;;11.50;87.20;100875.75;4995480;28;20236;-77
2021/09/23 04:57:25;;;;;;;41.03;28.57;;;;;;;11.53;87.17;100881.81;4995700;28;20898;-76
2021/09/23 04:59:51;;;;;;;39.40;29.57;;;;;;;11.57;87.08;100886.97;4995307;28;20223;-76
2021/09/23 05:02:17;;;;;;;34.07;27.60;;;;;;;11.59;86.91;100904.34;4995280;28;20200;-77
2021/09/23 05:04:45;;;;;;;39.73;28.53;;;;;;;11.58;87.23;100893.94;4995487;28;20562;-77
2021/09/23 05:07:12;;;;;;;44.97;31.43;;;;;;;11.58;86.51;100907.88;4995308;28;20287;-77
2021/09/23 05:09:38;;;;;;;43.83;31.87;;;;;;;11.62;86.08;100911.31;4995184;28;20292;-76
2021/09/23 05:12:05;;;;;;;40.63;29.60;;;;;;;11.58;85.98;100907.03;4995288;28;20235;-77
2021/09/23 05:14:32;;;;;;;35.07;27.93;;;;;;;11.59;86.04;100903.50;4995260;28;20631;-76
2021/09/23 05:17:00;;;;;;;30.07;26.43;;;;;;;11.56;86.36;100890.50;4994916;28;20574;-76
2021/09/23 05:19:26;;;;;;;28.57;24.97;;;;;;;11.56;86.40;100893.09;4994646;28;20208;-76
2021/09/23 05:21:54;;;;;;;28.53;23.83;;;;;;;11.52;86.61;100884.44;4994579;28;20200;-77
2021/09/23 05:24:20;;;;;;;30.33;24.80;;;;;;;11.47;86.74;100879.25;4995061;28;20213;-76
2021/09/23 05:26:47;;;;;;;27.60;22.97;;;;;;;11.48;87.10;100864.47;4994673;28;20275;-76
2021/09/23 05:29:13;;;;;;;30.30;23.93;;;;;;;11.50;87.12;100842.63;4994227;28;20264;-76
2021/09/23 05:31:40;;;;;;;30.47;23.67;;;;;;;11.47;87.72;100842.66;4994227;28;20203;-76
2021/09/23 05:34:06;;;;;;;28.53;24.13;;;;;;;11.44;87.83;100826.19;4994413;28;20200;-76
2021/09/23 05:36:33;;;;;;;38.57;27.07;;;;;;;11.45;87.64;100827.91;4994534;28;20228;-77
2021/09/23 05:39:03;;;;;;;32.83;26.27;;;;;;;11.46;87.84;100819.19;4994463;28;20203;-77
2021/09/23 05:41:29;;;;;;;32.33;25.13;;;;;;;11.44;88.04;100815.75;4994431;28;20208;-77
2021/09/23 05:43:56;;;;;;;40.13;28.37;;;;;;;11.35;88.00;100808.88;4991204;28;20259;-77
2021/09/23 05:46:22;;;;;;;35.23;25.97;;;;;;;11.43;88.32;100807.00;4984883;28;20219;-76
2021/09/23 05:48:49;;;;;;;32.33;27.13;;;;;;;11.49;88.33;100803.44;4984649;28;20224;-76
2021/09/23 05:51:15;;;;;;;30.40;26.13;;;;;;;11.54;88.38;100793.78;4989263;28;20259;-76
2021/09/23 05:53:42;;;;;;;30.90;26.73;;;;;;;11.58;88.18;100805.91;4984040;28;20677;-77
2021/09/23 05:56:09;;;;;;;34.70;27.87;;;;;;;11.62;88.51;100802.34;4983326;28;20203;-77
2021/09/23 05:58:36;;;;;;;37.00;24.80;;;;;;;11.65;88.77;100794.44;4982956;28;20206;-76
2021/09/23 06:01:02;;;;;;;29.90;24.07;;;;;;;11.66;88.99;100796.16;4984082;28;20679;-77
2021/09/23 06:03:29;;;;;;;33.53;26.20;;;;;;;11.70;88.79;100791.75;4984476;28;20672;-77
2021/09/23 06:05:55;;;;;;;36.17;27.43;;;;;;;11.76;87.94;100802.09;4987481;28;20250;-77
2021/09/23 06:08:22;;;;;;;36.10;27.70;;;;;;;11.81;87.79;100802.88;4983414;28;20278;-77
2021/09/23 06:10:48;;;;;;;37.37;27.23;;;;;;;11.86;88.04;100792.34;4983427;28;20205;-76
2021/09/23 06:13:16;;;;;;;34.50;27.60;;;;;;;11.93;88.42;100778.25;4985092;28;20278;-76
2021/09/23 06:15:42;;;;;;;34.70;26.63;;;;;;;11.92;88.48;100779.16;4983719;28;20208;-76
2021/09/23 06:18:08;;;;;;;30.83;24.83;;;;;;;12.02;88.54;100748.47;4982669;28;20701;-76
2021/09/23 06:20:37;;;;;;;29.20;25.30;;;;;;;12.11;88.24;100748.28;4991050;28;20228;-76
2021/09/23 06:23:03;;;;;;;32.73;24.30;;;;;;;12.16;88.33;100756.03;4985137;28;20272;-76
2021/09/23 06:25:29;;;;;;;27.57;24.20;;;;;;;12.22;87.60;100782.06;4984461;28;20200;-76
2021/09/23 06:27:56;;;;;;;26.47;23.63;;;;;;;12.26;88.07;100768.03;4982382;28;20279;-76
2021/09/23 06:30:24;;;;;;;26.50;23.63;;;;;;;12.27;87.88;100773.25;4983437;28;20744;-76
2021/09/23 06:32:50;;;;;;;27.10;23.50;;;;;;;12.30;87.22;100798.50;4983937;28;20213;-76
2021/09/23 06:35:16;;;;;;;26.37;23.50;;;;;;;12.39;86.69;100818.38;4984502;28;20200;-76
2021/09/23 06:37:43;;;;;;;22.57;20.10;;;;;;;12.43;86.80;100820.91;4983498;28;20222;-76
2021/09/23 06:40:11;;;;;;;25.10;22.50;;;;;;;12.42;85.90;100845.34;4984216;28;20197;-76
2021/09/23 06:42:37;;;;;;;24.30;21.77;;;;;;;12.52;85.86;100822.47;4984379;28;20250;-76
2021/09/23 06:45:05;;;;;;;25.37;22.30;;;;;;;12.58;85.97;100826.72;4983201;28;20256;-76
2021/09/23 06:47:32;;;;;;;22.67;20.37;;;;;;;12.61;85.72;100839.75;4982228;28;20221;-77
2021/09/23 06:49:59;;;;;;;23.40;20.70;;;;;;;12.66;85.61;100838.75;4987776;28;20245;-76
2021/09/23 06:52:26;;;;;;;24.03;20.93;;;;;;;12.69;86.05;100841.31;4986436;28;20258;-75
2021/09/23 06:54:53;;;;;;;21.43;19.23;;;;;;;12.74;85.44;100822.00;4984024;28;20552;-77
2021/09/23 06:57:20;;;;;;;20.87;18.87;;;;;;;12.80;85.83;100817.50;4983604;28;20225;-76
2021/09/23 06:59:46;;;;;;;20.13;18.03;;;;;;;12.88;85.25;100817.31;4982261;28;20263;-77
2021/09/23 07:02:12;;;;;;;20.53;18.43;;;;;;;12.91;85.13;100825.13;4984140;28;20212;-77
2021/09/23 07:04:40;;;;;;;19.90;17.97;;;;;;;12.96;85.30;100825.88;4982309;28;20198;-77
2021/09/23 07:07:07;;;;;;;20.20;18.30;;;;;;;13.06;85.12;100834.38;4982582;28;20221;-77
2021/09/23 07:09:33;;;;;;;19.90;18.03;;;;;;;13.08;84.65;100862.31;4983383;28;20251;-76
2021/09/23 07:12:00;;;;;;;20.90;18.83;;;;;;;13.10;83.98;100873.63;4982741;28;20206;-77
2021/09/23 07:14:27;;;;;;;20.67;18.43;;;;;;;13.17;83.32;100889.22;4985004;28;20205;-77
2021/09/23 07:16:54;;;;;;;18.93;16.97;;;;;;;13.14;83.65;100889.25;4987214;28;20265;-77
2021/09/23 07:19:20;;;;;;;19.50;17.80;;;;;;;13.26;84.17;100858.41;4985095;28;20201;-77
2021/09/23 07:21:49;;;;;;;19.60;17.67;;;;;;;13.23;82.84;100883.81;4985965;28;20204;-77
2021/09/23 07:24:15;;;;;;;19.47;17.60;;;;;;;13.34;83.46;100870.47;4983655;28;20201;-78
2021/09/23 07:26:41;;;;;;;19.03;17.33;;;;;;;13.38;83.24;100870.41;4982166;28;20225;-77
2021/09/23 07:29:09;;;;;;;17.80;16.20;;;;;;;13.47;83.01;100870.16;4983992;28;20787;-77
2021/09/23 07:31:36;;;;;;;19.03;16.50;;;;;;;13.47;82.52;100908.63;4984611;28;20214;-77
2021/09/23 07:34:02;;;;;;;17.87;16.10;;;;;;;13.55;82.27;100924.19;4984423;28;20233;-76
2021/09/23 07:36:29;;;;;;;18.23;16.37;;;;;;;13.61;82.27;100901.28;4986404;28;20258;-76
2021/09/23 07:38:58;;;;;;;17.13;15.43;;;;;;;13.72;82.91;100859.09;4992413;28;20589;-77
2021/09/23 07:41:25;;;;;;;16.83;15.33;;;;;;;13.82;82.24;100881.56;4992576;28;20212;-76
2021/09/23 07:43:51;;;;;;;18.30;15.53;;;;;;;13.88;80.80;100936.50;4992616;28;20213;-76
2021/09/23 07:46:18;;;;;;;16.90;15.50;;;;;;;13.96;79.90;100961.72;4992499;28;20229;-76
2021/09/23 07:48:47;;;;;;;16.03;14.57;;;;;;;14.03;79.40;100976.38;4991633;28;20221;-76
2021/09/23 07:51:13;;;;;;;15.63;14.03;;;;;;;14.12;79.57;100970.06;4983821;28;20700;-77
2021/09/23 07:53:40;;;;;;;16.60;15.27;;;;;;;14.11;78.44;101003.31;4992691;28;20220;-77
2021/09/23 07:56:07;;;;;;;15.17;13.87;;;;;;;14.19;79.76;100961.13;4992402;28;20267;-77
2021/09/23 07:58:34;;;;;;;15.07;13.67;;;;;;;14.21;78.90;100991.72;4992420;28;20264;-76
2021/09/23 08:01:00;;;;;;;16.17;14.43;;;;;;;14.22;79.30;100990.78;4992338;28;20217;-77
2021/09/23 08:03:27;;;;;;;15.23;13.93;;;;;;;14.23;78.31;100999.53;4995755;28;20212;-77
2021/09/23 08:05:53;;;;;;;13.93;12.73;;;;;;;14.35;78.71;100998.34;4991141;28;20214;-76
2021/09/23 08:08:20;;;;;;;13.77;12.37;;;;;;;14.35;77.43;101054.38;4976271;28;20208;-77
2021/09/23 08:10:46;;;;;;;13.57;12.40;;;;;;;14.39;78.50;101037.66;4976693;28;20210;-77
2021/09/23 08:13:14;;;;;;;14.43;13.07;;;;;;;14.45;77.17;101045.38;4993799;28;20260;-77
2021/09/23 08:15:42;;;;;;;14.47;13.17;;;;;;;14.39;76.17;101078.78;4995401;28;20548;-77
2021/09/23 08:18:08;;;;;;;13.50;12.37;;;;;;;14.49;77.15;101049.66;4995681;28;20240;-77
2021/09/23 08:20:35;;;;;;;15.20;13.47;;;;;;;14.53;76.42;101058.31;4995468;28;20202;-77
2021/09/23 08:23:02;;;;;;;13.30;12.20;;;;;;;14.63;76.94;101032.72;4995701;28;20668;-77
2021/09/23 08:25:29;;;;;;;13.13;12.03;;;;;;;14.68;76.47;101028.19;4995392;28;20209;-77
2021/09/23 08:27:55;;;;;;;13.10;11.90;;;;;;;14.77;76.75;101020.06;4995872;28;20224;-77
2021/09/23 08:30:23;;;;;;;14.03;12.63;;;;;;;14.81;75.92;101052.38;4994220;28;20267;-77
2021/09/23 08:32:49;;;;;;;13.10;11.90;;;;;;;14.83;75.31;101075.09;4987950;28;20206;-77
2021/09/23 08:35:22;;;;;;;13.70;12.40;;;;;;;14.87;75.53;101074.09;4991852;28;20742;-77
2021/09/23 08:37:50;;;;;;;13.50;12.10;;;;;;;14.84;74.31;101099.59;4986591;28;20234;-77
2021/09/23 08:40:17;;;;;;;14.03;12.70;;;;;;;14.89;74.79;101079.31;4976114;28;20626;-77
2021/09/23 08:42:45;;;;;;;12.87;11.87;;;;;;;14.87;74.92;101074.09;4976404;28;20237;-77
2021/09/23 08:45:13;;;;;;;12.53;11.23;;;;;;;14.88;75.07;101070.56;4975834;28;20210;-76
2021/09/23 08:47:43;;;;;;;12.23;11.00;;;;;;;14.93;75.10;101065.19;4976578;28;20230;-77
2021/09/23 08:50:12;;;;;;;11.23;10.37;;;;;;;14.87;73.78;101094.28;4992518;28;20224;-77
2021/09/23 08:52:38;;;;;;;15.33;11.47;;;;;;;14.94;74.47;101069.53;4995843;28;20276;-77
2021/09/23 08:55:06;;;;;;;11.00;10.10;;;;;;;14.99;75.13;101053.66;4995439;28;20208;-77
2021/09/23 08:57:33;;;;;;;11.10;10.30;;;;;;;15.01;73.96;101071.09;4994941;28;20217;-77
2021/09/23 09:00:07;;;;;;;11.63;9.87;;;;;;;15.16;74.75;101045.28;4995191;28;20210;-77
2021/09/23 09:02:33;;;;;;;11.20;10.30;;;;;;;15.23;74.58;101058.22;4304699;28;10000795;-77
2021/09/23 09:05:01;;;;;;;10.40;9.37;;;;;;;15.34;73.76;101072.81;4992360;28;20201;-77
2021/09/23 09:07:28;;;;;;;10.53;9.53;;;;;;;15.41;74.39;101045.44;4992638;28;20269;-77
2021/09/23 09:10:01;;;;;;;10.03;9.13;;;;;;;15.52;72.48;101096.00;4991765;28;20630;-77
2021/09/23 09:12:30;;;;;;;9.73;8.83;;;;;;;15.60;72.37;101109.78;4992455;28;20221;-77
2021/09/23 09:14:57;;;;;;;9.57;8.77;;;;;;;15.67;72.42;101100.78;4991956;28;20215;-77
2021/09/23 09:17:23;;;;;;;9.07;8.17;;;;;;;15.76;71.69;101104.97;4992506;28;20286;-76
2021/09/23 09:19:54;;;;;;;7.93;7.23;;;;;;;15.93;71.16;101151.84;4992383;28;20210;-77
2021/09/23 09:22:24;;;;;;;8.43;7.83;;;;;;;16.02;69.72;101179.69;4992699;28;20206;-77
2021/09/23 09:24:53;;;;;;;8.13;7.40;;;;;;;16.12;68.62;101218.00;4991979;28;20734;-77
2021/09/23 09:27:37;;;;;;;9.07;6.80;;;;;;;16.19;69.39;101198.44;4992765;28;20276;-78
2021/09/23 09:30:08;;;;;;;7.90;7.17;;;;;;;16.34;68.72;101234.03;4991926;28;20215;-77
2021/09/23 09:32:37;;;;;;;7.23;6.53;;;;;;;16.44;67.33;101267.09;4991484;28;20234;-78
2021/09/23 09:35:04;;;;;;;5.60;5.10;;;;;;;16.60;65.11;101346.56;4992496;28;20211;-77
2021/09/23 09:37:33;;;;;;;6.80;5.47;;;;;;;16.74;64.49;101366.41;4992682;28;20226;-78
2021/09/23 09:40:01;;;;;;;6.37;5.20;;;;;;;16.90;64.64;101369.47;4992566;28;20263;-78
2021/09/23 09:42:29;;;;;;;6.43;5.83;;;;;;;16.94;64.19;101384.28;4992561;28;20869;-78
2021/09/23 09:44:56;;;;;;;5.83;5.33;;;;;;;17.01;63.32;101393.75;4992530;28;20696;-77
2021/09/23 09:47:30;;;;;;;5.33;4.83;;;;;;;17.09;62.51;101420.75;4991604;28;20249;-77
2021/09/23 09:49:57;;;;;;;5.47;4.97;;;;;;;17.03;62.57;101421.81;4992032;28;20231;-77
2021/09/23 09:52:29;;;;;;;7.47;4.73;;;;;;;17.12;60.86;101468.13;4992184;28;20211;-77
2021/09/23 09:55:03;;;;;;;15.67;5.67;;;;;;;17.19;59.50;101555.91;4991609;28;20215;-77
2021/09/23 09:57:29;;;;;;;10.60;5.50;;;;;;;17.27;59.63;101544.22;4991576;28;20227;-77
2021/09/23 09:59:59;;;;;;;7.77;5.23;;;;;;;17.36;59.74;101518.47;4991356;28;20229;-77
2021/09/23 10:02:27;;;;;;;6.00;4.70;;;;;;;17.58;59.37;101516.03;4990528;28;20217;-77
2021/09/23 10:04:54;;;;;;;6.07;5.57;;;;;;;17.67;60.43;101470.84;4991252;28;20204;-77
2021/09/23 10:07:22;;;;;;;5.27;4.77;;;;;;;17.78;59.28;101499.56;4991069;28;20237;-77
2021/09/23 10:09:50;;;;;;;5.80;5.27;;;;;;;17.67;55.66;101622.22;4990952;28;20235;-77
2021/09/23 10:12:18;;;;;;;7.60;6.30;;;;;;;17.60;55.79;101633.03;4991231;28;20207;-76
2021/09/23 10:14:46;;;;;;;6.13;4.83;;;;;;;17.63;56.19;101617.09;4991601;28;20207;-76
2021/09/23 10:17:14;;;;;;;5.20;4.37;;;;;;;17.66;54.99;101631.09;4990254;28;20972;-76
2021/09/23 10:19:43;;;;;;;5.23;4.73;;;;;;;17.74;55.72;101608.84;4990737;28;20208;-77
2021/09/23 10:22:12;;;;;;;5.50;4.97;;;;;;;17.80;55.90;101590.16;4991105;28;20226;-76
2021/09/23 10:24:41;;;;;;;7.47;4.77;;;;;;;17.86;55.88;101582.13;4990309;28;20243;-77
2021/09/23 10:29:49;;;;;;;5.90;4.60;;;;;;;17.94;56.37;101572.16;4989467;28;20237;-76
2021/09/23 10:32:17;;;;;;;4.57;4.17;;;;;;;18.01;54.11;101615.09;4986988;28;20207;-76
2021/09/23 10:34:43;;;;;;;4.10;3.70;;;;;;;18.05;53.67;101641.38;4979961;28;20274;-77
2021/09/23 10:37:10;;;;;;;4.07;3.63;;;;;;;18.06;54.52;101606.13;4981546;28;20278;-76
2021/09/23 10:39:38;;;;;;;6.40;4.10;;;;;;;18.10;54.01;101611.31;4983095;28;20200;-77
2021/09/23 10:42:08;;;;;;;6.17;4.40;;;;;;;18.18;54.13;101589.00;4979978;28;20200;-77
2021/09/23 10:44:34;;;;;;;4.13;3.77;;;;;;;18.23;53.73;101573.00;4981110;28;20209;-76
2021/09/23 10:47:09;;;;;;;4.80;4.30;;;;;;;18.31;54.10;101547.16;5079729;27;20562;-77
2021/09/23 10:49:37;;;;;;;4.97;4.50;;;;;;;18.26;53.14;101592.25;5074813;28;20206;-76
2021/09/23 10:52:03;;;;;;;4.43;4.03;;;;;;;18.24;53.10;101607.31;5075069;28;20201;-77
2021/09/23 10:54:30;;;;;;;4.80;4.33;;;;;;;18.23;51.35;101682.22;5075784;28;20209;-76
2021/09/23 10:56:57;;;;;;;4.73;4.23;;;;;;;18.28;53.76;101586.09;5072677;28;20931;-76
2021/09/23 10:59:26;;;;;;;8.50;5.83;;;;;;;18.36;53.87;101531.19;5073661;28;20659;-76
2021/09/23 11:01:52;;;;;;;4.23;3.83;;;;;;;18.44;53.34;101560.84;5073408;28;20201;-78
2021/09/23 11:04:21;;;;;;;4.90;4.07;;;;;;;18.46;52.21;101602.19;5073956;28;20447;-78
2021/09/23 11:06:50;;;;;;;6.50;4.03;;;;;;;18.52;52.38;101602.91;5077032;28;20224;-77
2021/09/23 11:09:19;;;;;;;7.37;3.57;;;;;;;18.56;52.20;101610.69;5073025;28;20205;-76
2021/09/23 11:11:47;;;;;;;4.80;4.30;;;;;;;18.64;51.52;101613.94;5072610;28;20577;-76
2021/09/23 11:14:16;;;;;;;4.80;4.40;;;;;;;18.67;51.15;101649.97;5072524;28;20670;-78